sensor_id;sensor_type;location;lat;lon;timestamp;P1;durP1;ratioP1;P2;durP2;ratioP2
39768;SDS011;38939;47.824;14.642;2022-07-12T00:01:43;0.80;;;0.73;;
39768;SDS011;38939;47.824;14.642;2022-07-12T00:02:45;1.48;;;0.60;;
39768;SDS011;38939;47.824;14.642;2022-07-12T00:03:48;0.82;;;0.50;;
39768;SDS011;38939;47.824;14.642;2022-07-12T00:04:50;0.98;;;0.77;;
39768;SDS011;38939;47.824;14.642;2022-07-12T00:05:53;0.88;;;0.80;;
39768;SDS011;38939;47.824;14.642;2022-07-12T00:06:56;1.27;;;0.80;;
39768;SDS011;38939;47.824;14.642;2022-07-12T00:07:58;1.20;;;0.90;;
39768;SDS011;38939;47.824;14.642;2022-07-12T00:09:00;1.20;;;0.65;;
39768;SDS011;38939;47.824;14.642;2022-07-12T00:10:02;0.73;;;0.55;;
39768;SDS011;38939;47.824;14.642;2022-07-12T00:11:05;0.95;;;0.85;;
39768;SDS011;38939;47.824;14.642;2022-07-12T00:12:08;1.88;;;0.70;;
39768;SDS011;38939;47.824;14.642;2022-07-12T00:13:11;2.35;;;0.90;;
39768;SDS011;38939;47.824;14.642;2022-07-12T00:14:13;2.72;;;0.73;;
39768;SDS011;38939;47.824;14.642;2022-07-12T00:15:15;1.17;;;0.70;;
39768;SDS011;38939;47.824;14.642;2022-07-12T00:16:17;1.30;;;0.77;;
39768;SDS011;38939;47.824;14.642;2022-07-12T00:17:19;4.38;;;0.70;;
39768;SDS011;38939;47.824;14.642;2022-07-12T00:18:22;0.93;;;0.70;;
39768;SDS011;38939;47.824;14.642;2022-07-12T00:19:24;2.13;;;0.70;;
39768;SDS011;38939;47.824;14.642;2022-07-12T00:20:26;1.42;;;0.70;;
39768;SDS011;38939;47.824;14.642;2022-07-12T00:21:28;1.77;;;0.60;;
39768;SDS011;38939;47.824;14.642;2022-07-12T00:22:31;1.00;;;0.73;;
39768;SDS011;38939;47.824;14.642;2022-07-12T00:23:34;0.63;;;0.50;;
39768;SDS011;38939;47.824;14.642;2022-07-12T00:24:36;1.23;;;0.65;;
39768;SDS011;38939;47.824;14.642;2022-07-12T00:25:38;2.35;;;0.70;;
39768;SDS011;38939;47.824;14.642;2022-07-12T00:26:40;1.10;;;0.88;;
39768;SDS011;38939;47.824;14.642;2022-07-12T00:27:42;2.45;;;0.68;;
39768;SDS011;38939;47.824;14.642;2022-07-12T00:28:44;3.13;;;1.00;;
39768;SDS011;38939;47.824;14.642;2022-07-12T00:29:46;4.57;;;1.00;;
39768;SDS011;38939;47.824;14.642;2022-07-12T00:30:48;1.40;;;0.77;;
39768;SDS011;38939;47.824;14.642;2022-07-12T00:31:50;1.10;;;0.70;;
39768;SDS011;38939;47.824;14.642;2022-07-12T00:32:52;0.93;;;0.60;;
39768;SDS011;38939;47.824;14.642;2022-07-12T00:33:55;2.58;;;1.20;;
39768;SDS011;38939;47.824;14.642;2022-07-12T00:34:57;1.52;;;0.88;;
39768;SDS011;38939;47.824;14.642;2022-07-12T00:35:59;3.55;;;0.90;;
39768;SDS011;38939;47.824;14.642;2022-07-12T00:37:02;2.40;;;0.85;;
39768;SDS011;38939;47.824;14.642;2022-07-12T00:38:04;2.22;;;0.60;;
39768;SDS011;38939;47.824;14.642;2022-07-12T00:39:06;4.78;;;1.52;;
39768;SDS011;38939;47.824;14.642;2022-07-12T00:40:09;5.13;;;0.80;;
39768;SDS011;38939;47.824;14.642;2022-07-12T00:41:12;6.07;;;0.77;;
39768;SDS011;38939;47.824;14.642;2022-07-12T00:42:14;2.45;;;1.35;;
39768;SDS011;38939;47.824;14.642;2022-07-12T00:43:16;4.82;;;0.80;;
39768;SDS011;38939;47.824;14.642;2022-07-12T00:44:18;1.73;;;1.02;;
39768;SDS011;38939;47.824;14.642;2022-07-12T00:45:20;4.13;;;0.85;;
39768;SDS011;38939;47.824;14.642;2022-07-12T00:46:23;0.73;;;0.70;;
39768;SDS011;38939;47.824;14.642;2022-07-12T00:47:28;0.82;;;0.77;;
39768;SDS011;38939;47.824;14.642;2022-07-12T00:48:39;0.93;;;0.57;;
39768;SDS011;38939;47.824;14.642;2022-07-12T00:49:41;0.73;;;0.70;;
39768;SDS011;38939;47.824;14.642;2022-07-12T00:50:44;1.35;;;0.65;;
39768;SDS011;38939;47.824;14.642;2022-07-12T00:51:47;3.03;;;0.60;;
39768;SDS011;38939;47.824;14.642;2022-07-12T00:52:51;2.05;;;1.05;;
39768;SDS011;38939;47.824;14.642;2022-07-12T00:53:56;2.85;;;0.68;;
39768;SDS011;38939;47.824;14.642;2022-07-12T00:55:00;0.70;;;0.70;;
39768;SDS011;38939;47.824;14.642;2022-07-12T00:56:02;2.58;;;0.77;;
39768;SDS011;38939;47.824;14.642;2022-07-12T00:57:06;3.63;;;0.85;;
39768;SDS011;38939;47.824;14.642;2022-07-12T00:58:08;1.80;;;0.80;;
39768;SDS011;38939;47.824;14.642;2022-07-12T00:59:10;1.05;;;0.80;;
39768;SDS011;38939;47.824;14.642;2022-07-12T01:00:14;1.98;;;0.80;;
39768;SDS011;38939;47.824;14.642;2022-07-12T01:01:22;1.50;;;0.75;;
39768;SDS011;38939;47.824;14.642;2022-07-12T01:02:25;6.45;;;0.90;;
39768;SDS011;38939;47.824;14.642;2022-07-12T01:04:29;1.48;;;0.65;;
39768;SDS011;38939;47.824;14.642;2022-07-12T01:05:32;1.67;;;0.80;;
39768;SDS011;38939;47.824;14.642;2022-07-12T01:06:34;2.20;;;0.85;;
39768;SDS011;38939;47.824;14.642;2022-07-12T01:07:37;0.60;;;0.60;;
39768;SDS011;38939;47.824;14.642;2022-07-12T01:08:41;1.75;;;0.65;;
39768;SDS011;38939;47.824;14.642;2022-07-12T01:09:44;3.60;;;0.80;;
39768;SDS011;38939;47.824;14.642;2022-07-12T01:10:46;1.95;;;0.73;;
39768;SDS011;38939;47.824;14.642;2022-07-12T01:11:51;1.10;;;0.70;;
39768;SDS011;38939;47.824;14.642;2022-07-12T01:12:54;1.20;;;0.98;;
39768;SDS011;38939;47.824;14.642;2022-07-12T01:14:00;3.92;;;0.80;;
39768;SDS011;38939;47.824;14.642;2022-07-12T01:15:03;0.80;;;0.65;;
39768;SDS011;38939;47.824;14.642;2022-07-12T01:16:07;1.65;;;0.70;;
39768;SDS011;38939;47.824;14.642;2022-07-12T01:17:11;2.10;;;0.93;;
39768;SDS011;38939;47.824;14.642;2022-07-12T01:18:14;2.67;;;0.80;;
39768;SDS011;38939;47.824;14.642;2022-07-12T01:19:20;1.75;;;0.80;;
39768;SDS011;38939;47.824;14.642;2022-07-12T01:20:22;1.60;;;0.80;;
39768;SDS011;38939;47.824;14.642;2022-07-12T01:21:25;3.78;;;0.70;;
39768;SDS011;38939;47.824;14.642;2022-07-12T01:22:34;1.63;;;0.80;;
39768;SDS011;38939;47.824;14.642;2022-07-12T01:23:42;1.55;;;0.93;;
39768;SDS011;38939;47.824;14.642;2022-07-12T01:25:46;0.98;;;0.85;;
39768;SDS011;38939;47.824;14.642;2022-07-12T01:26:49;1.73;;;0.93;;
39768;SDS011;38939;47.824;14.642;2022-07-12T01:27:52;0.60;;;0.60;;
39768;SDS011;38939;47.824;14.642;2022-07-12T01:29:57;3.45;;;1.17;;
39768;SDS011;38939;47.824;14.642;2022-07-12T01:30:59;3.17;;;1.13;;
39768;SDS011;38939;47.824;14.642;2022-07-12T01:32:04;0.82;;;0.60;;
39768;SDS011;38939;47.824;14.642;2022-07-12T01:33:28;4.03;;;1.00;;
39768;SDS011;38939;47.824;14.642;2022-07-12T01:34:31;2.60;;;1.10;;
39768;SDS011;38939;47.824;14.642;2022-07-12T01:36:37;1.23;;;0.98;;
39768;SDS011;38939;47.824;14.642;2022-07-12T01:37:42;2.13;;;1.00;;
39768;SDS011;38939;47.824;14.642;2022-07-12T01:38:45;4.05;;;1.00;;
39768;SDS011;38939;47.824;14.642;2022-07-12T01:39:52;3.55;;;0.95;;
39768;SDS011;38939;47.824;14.642;2022-07-12T01:40:56;3.90;;;1.00;;
39768;SDS011;38939;47.824;14.642;2022-07-12T01:41:58;5.82;;;1.35;;
39768;SDS011;38939;47.824;14.642;2022-07-12T01:43:00;1.30;;;0.73;;
39768;SDS011;38939;47.824;14.642;2022-07-12T01:44:02;1.45;;;0.82;;
39768;SDS011;38939;47.824;14.642;2022-07-12T01:45:05;0.70;;;0.70;;
39768;SDS011;38939;47.824;14.642;2022-07-12T01:46:08;3.80;;;1.10;;
39768;SDS011;38939;47.824;14.642;2022-07-12T01:47:10;1.83;;;1.02;;
39768;SDS011;38939;47.824;14.642;2022-07-12T01:48:13;2.70;;;0.80;;
39768;SDS011;38939;47.824;14.642;2022-07-12T01:49:15;3.53;;;0.73;;
39768;SDS011;38939;47.824;14.642;2022-07-12T01:50:17;2.70;;;1.00;;
39768;SDS011;38939;47.824;14.642;2022-07-12T01:51:19;1.45;;;1.20;;
39768;SDS011;38939;47.824;14.642;2022-07-12T01:52:21;1.38;;;0.88;;
39768;SDS011;38939;47.824;14.642;2022-07-12T01:53:24;1.58;;;0.80;;
39768;SDS011;38939;47.824;14.642;2022-07-12T01:54:26;1.92;;;0.95;;
39768;SDS011;38939;47.824;14.642;2022-07-12T01:55:28;2.35;;;1.10;;
39768;SDS011;38939;47.824;14.642;2022-07-12T01:56:33;3.83;;;1.20;;
39768;SDS011;38939;47.824;14.642;2022-07-12T01:57:37;1.85;;;0.93;;
39768;SDS011;38939;47.824;14.642;2022-07-12T01:58:42;1.42;;;0.75;;
39768;SDS011;38939;47.824;14.642;2022-07-12T01:59:44;1.40;;;0.80;;
39768;SDS011;38939;47.824;14.642;2022-07-12T02:00:47;2.08;;;0.90;;
39768;SDS011;38939;47.824;14.642;2022-07-12T02:01:53;2.33;;;1.08;;
39768;SDS011;38939;47.824;14.642;2022-07-12T02:02:55;2.05;;;1.23;;
39768;SDS011;38939;47.824;14.642;2022-07-12T02:04:01;3.05;;;0.90;;
39768;SDS011;38939;47.824;14.642;2022-07-12T02:05:07;1.23;;;0.80;;
39768;SDS011;38939;47.824;14.642;2022-07-12T02:06:09;0.93;;;0.80;;
39768;SDS011;38939;47.824;14.642;2022-07-12T02:07:11;1.95;;;1.10;;
39768;SDS011;38939;47.824;14.642;2022-07-12T02:08:14;1.58;;;1.02;;
39768;SDS011;38939;47.824;14.642;2022-07-12T02:10:18;1.60;;;0.98;;
39768;SDS011;38939;47.824;14.642;2022-07-12T02:11:20;1.35;;;0.90;;
39768;SDS011;38939;47.824;14.642;2022-07-12T02:12:23;2.65;;;0.85;;
39768;SDS011;38939;47.824;14.642;2022-07-12T02:14:27;3.15;;;0.88;;
39768;SDS011;38939;47.824;14.642;2022-07-12T02:15:29;1.48;;;1.00;;
39768;SDS011;38939;47.824;14.642;2022-07-12T02:16:32;1.75;;;0.90;;
39768;SDS011;38939;47.824;14.642;2022-07-12T02:17:34;3.58;;;1.25;;
39768;SDS011;38939;47.824;14.642;2022-07-12T02:18:37;2.20;;;1.00;;
39768;SDS011;38939;47.824;14.642;2022-07-12T02:19:39;1.65;;;0.70;;
39768;SDS011;38939;47.824;14.642;2022-07-12T02:20:41;1.92;;;1.17;;
39768;SDS011;38939;47.824;14.642;2022-07-12T02:21:43;2.78;;;0.98;;
39768;SDS011;38939;47.824;14.642;2022-07-12T02:22:45;3.42;;;0.85;;
39768;SDS011;38939;47.824;14.642;2022-07-12T02:23:47;1.63;;;1.40;;
39768;SDS011;38939;47.824;14.642;2022-07-12T02:24:49;2.85;;;1.10;;
39768;SDS011;38939;47.824;14.642;2022-07-12T02:25:52;3.72;;;1.55;;
39768;SDS011;38939;47.824;14.642;2022-07-12T02:26:54;1.83;;;0.82;;
39768;SDS011;38939;47.824;14.642;2022-07-12T02:27:56;2.50;;;1.05;;
39768;SDS011;38939;47.824;14.642;2022-07-12T02:28:58;2.30;;;1.17;;
39768;SDS011;38939;47.824;14.642;2022-07-12T02:31:02;3.63;;;1.15;;
39768;SDS011;38939;47.824;14.642;2022-07-12T02:32:05;2.28;;;1.15;;
39768;SDS011;38939;47.824;14.642;2022-07-12T02:33:07;1.15;;;0.88;;
39768;SDS011;38939;47.824;14.642;2022-07-12T02:34:09;1.48;;;0.85;;
39768;SDS011;38939;47.824;14.642;2022-07-12T02:35:11;5.07;;;1.30;;
39768;SDS011;38939;47.824;14.642;2022-07-12T02:36:13;4.75;;;1.15;;
39768;SDS011;38939;47.824;14.642;2022-07-12T02:37:15;2.95;;;1.35;;
39768;SDS011;38939;47.824;14.642;2022-07-12T02:38:17;1.85;;;1.20;;
39768;SDS011;38939;47.824;14.642;2022-07-12T02:39:21;4.00;;;1.30;;
39768;SDS011;38939;47.824;14.642;2022-07-12T02:40:23;1.17;;;0.80;;
39768;SDS011;38939;47.824;14.642;2022-07-12T02:41:44;0.77;;;0.77;;
39768;SDS011;38939;47.824;14.642;2022-07-12T02:42:46;2.65;;;1.02;;
39768;SDS011;38939;47.824;14.642;2022-07-12T02:43:50;1.33;;;1.00;;
39768;SDS011;38939;47.824;14.642;2022-07-12T02:44:52;1.65;;;0.98;;
39768;SDS011;38939;47.824;14.642;2022-07-12T02:45:55;1.70;;;1.35;;
39768;SDS011;38939;47.824;14.642;2022-07-12T02:48:20;2.33;;;1.02;;
39768;SDS011;38939;47.824;14.642;2022-07-12T02:49:22;2.83;;;1.48;;
39768;SDS011;38939;47.824;14.642;2022-07-12T02:50:24;5.90;;;1.13;;
39768;SDS011;38939;47.824;14.642;2022-07-12T02:51:26;2.65;;;0.85;;
39768;SDS011;38939;47.824;14.642;2022-07-12T02:52:28;3.28;;;1.23;;
39768;SDS011;38939;47.824;14.642;2022-07-12T02:53:31;4.75;;;1.30;;
39768;SDS011;38939;47.824;14.642;2022-07-12T02:54:41;1.88;;;1.10;;
39768;SDS011;38939;47.824;14.642;2022-07-12T02:55:43;3.08;;;1.45;;
39768;SDS011;38939;47.824;14.642;2022-07-12T02:57:48;1.98;;;1.80;;
39768;SDS011;38939;47.824;14.642;2022-07-12T02:59:52;3.40;;;1.10;;
39768;SDS011;38939;47.824;14.642;2022-07-12T03:00:54;1.90;;;1.02;;
39768;SDS011;38939;47.824;14.642;2022-07-12T03:01:56;4.38;;;1.10;;
39768;SDS011;38939;47.824;14.642;2022-07-12T03:03:00;3.38;;;1.17;;
39768;SDS011;38939;47.824;14.642;2022-07-12T03:04:02;3.10;;;1.10;;
39768;SDS011;38939;47.824;14.642;2022-07-12T03:05:05;2.55;;;1.40;;
39768;SDS011;38939;47.824;14.642;2022-07-12T03:06:07;2.58;;;1.13;;
39768;SDS011;38939;47.824;14.642;2022-07-12T03:07:09;2.47;;;1.13;;
39768;SDS011;38939;47.824;14.642;2022-07-12T03:08:12;3.38;;;1.60;;
39768;SDS011;38939;47.824;14.642;2022-07-12T03:09:14;1.65;;;1.00;;
39768;SDS011;38939;47.824;14.642;2022-07-12T03:10:16;3.80;;;1.13;;
39768;SDS011;38939;47.824;14.642;2022-07-12T03:11:18;4.10;;;1.38;;
39768;SDS011;38939;47.824;14.642;2022-07-12T03:12:20;1.73;;;1.20;;
39768;SDS011;38939;47.824;14.642;2022-07-12T03:13:22;2.95;;;0.82;;
39768;SDS011;38939;47.824;14.642;2022-07-12T03:14:24;1.58;;;0.98;;
39768;SDS011;38939;47.824;14.642;2022-07-12T03:15:27;1.58;;;0.85;;
39768;SDS011;38939;47.824;14.642;2022-07-12T03:16:30;1.45;;;0.85;;
39768;SDS011;38939;47.824;14.642;2022-07-12T03:18:35;2.33;;;0.98;;
39768;SDS011;38939;47.824;14.642;2022-07-12T03:20:39;4.13;;;1.33;;
39768;SDS011;38939;47.824;14.642;2022-07-12T03:21:41;2.58;;;1.38;;
39768;SDS011;38939;47.824;14.642;2022-07-12T03:22:44;1.92;;;1.23;;
39768;SDS011;38939;47.824;14.642;2022-07-12T03:23:51;2.28;;;1.52;;
39768;SDS011;38939;47.824;14.642;2022-07-12T03:24:53;6.10;;;1.42;;
39768;SDS011;38939;47.824;14.642;2022-07-12T03:25:55;4.50;;;1.27;;
39768;SDS011;38939;47.824;14.642;2022-07-12T03:26:58;3.20;;;1.10;;
39768;SDS011;38939;47.824;14.642;2022-07-12T03:28:00;1.35;;;1.00;;
39768;SDS011;38939;47.824;14.642;2022-07-12T03:29:02;2.53;;;1.20;;
39768;SDS011;38939;47.824;14.642;2022-07-12T03:30:04;2.05;;;1.10;;
39768;SDS011;38939;47.824;14.642;2022-07-12T03:31:06;4.15;;;1.27;;
39768;SDS011;38939;47.824;14.642;2022-07-12T03:32:08;1.42;;;1.33;;
39768;SDS011;38939;47.824;14.642;2022-07-12T03:34:13;3.67;;;1.30;;
39768;SDS011;38939;47.824;14.642;2022-07-12T03:35:15;2.72;;;1.30;;
39768;SDS011;38939;47.824;14.642;2022-07-12T03:36:17;1.60;;;1.08;;
39768;SDS011;38939;47.824;14.642;2022-07-12T03:37:19;2.72;;;1.40;;
39768;SDS011;38939;47.824;14.642;2022-07-12T03:38:21;2.33;;;1.60;;
39768;SDS011;38939;47.824;14.642;2022-07-12T03:39:24;1.55;;;1.10;;
39768;SDS011;38939;47.824;14.642;2022-07-12T03:41:28;2.50;;;1.27;;
39768;SDS011;38939;47.824;14.642;2022-07-12T03:42:30;5.25;;;1.17;;
39768;SDS011;38939;47.824;14.642;2022-07-12T03:43:32;10.48;;;1.63;;
39768;SDS011;38939;47.824;14.642;2022-07-12T03:44:34;4.57;;;1.58;;
39768;SDS011;38939;47.824;14.642;2022-07-12T03:45:36;2.05;;;1.20;;
39768;SDS011;38939;47.824;14.642;2022-07-12T03:46:38;4.18;;;1.70;;
39768;SDS011;38939;47.824;14.642;2022-07-12T03:47:40;2.25;;;1.30;;
39768;SDS011;38939;47.824;14.642;2022-07-12T03:48:43;2.45;;;1.25;;
39768;SDS011;38939;47.824;14.642;2022-07-12T03:49:45;2.75;;;1.20;;
39768;SDS011;38939;47.824;14.642;2022-07-12T03:50:47;2.58;;;1.23;;
39768;SDS011;38939;47.824;14.642;2022-07-12T03:51:49;1.70;;;1.13;;
39768;SDS011;38939;47.824;14.642;2022-07-12T03:52:51;3.42;;;1.55;;
39768;SDS011;38939;47.824;14.642;2022-07-12T03:53:54;3.38;;;1.30;;
39768;SDS011;38939;47.824;14.642;2022-07-12T03:54:56;2.10;;;1.17;;
39768;SDS011;38939;47.824;14.642;2022-07-12T03:55:58;2.00;;;1.52;;
39768;SDS011;38939;47.824;14.642;2022-07-12T03:57:00;5.10;;;1.70;;
39768;SDS011;38939;47.824;14.642;2022-07-12T03:58:15;1.92;;;1.42;;
39768;SDS011;38939;47.824;14.642;2022-07-12T03:59:17;4.55;;;1.45;;
39768;SDS011;38939;47.824;14.642;2022-07-12T04:00:19;2.90;;;1.23;;
39768;SDS011;38939;47.824;14.642;2022-07-12T04:01:21;3.75;;;1.60;;
39768;SDS011;38939;47.824;14.642;2022-07-12T04:02:24;6.13;;;1.60;;
39768;SDS011;38939;47.824;14.642;2022-07-12T04:04:28;1.75;;;1.20;;
39768;SDS011;38939;47.824;14.642;2022-07-12T04:05:30;3.53;;;1.45;;
39768;SDS011;38939;47.824;14.642;2022-07-12T04:06:33;5.78;;;1.25;;
39768;SDS011;38939;47.824;14.642;2022-07-12T04:07:35;2.10;;;1.42;;
39768;SDS011;38939;47.824;14.642;2022-07-12T04:08:37;1.42;;;1.25;;
39768;SDS011;38939;47.824;14.642;2022-07-12T04:09:39;2.30;;;1.10;;
39768;SDS011;38939;47.824;14.642;2022-07-12T04:10:41;3.25;;;1.50;;
39768;SDS011;38939;47.824;14.642;2022-07-12T04:11:43;6.43;;;1.60;;
39768;SDS011;38939;47.824;14.642;2022-07-12T04:12:45;5.18;;;1.35;;
39768;SDS011;38939;47.824;14.642;2022-07-12T04:13:49;2.00;;;1.17;;
39768;SDS011;38939;47.824;14.642;2022-07-12T04:14:51;3.35;;;1.15;;
39768;SDS011;38939;47.824;14.642;2022-07-12T04:15:53;4.38;;;1.27;;
39768;SDS011;38939;47.824;14.642;2022-07-12T04:16:55;3.20;;;1.27;;
39768;SDS011;38939;47.824;14.642;2022-07-12T04:17:58;8.85;;;1.40;;
39768;SDS011;38939;47.824;14.642;2022-07-12T04:19:00;2.88;;;1.42;;
39768;SDS011;38939;47.824;14.642;2022-07-12T04:20:03;1.95;;;1.60;;
39768;SDS011;38939;47.824;14.642;2022-07-12T04:21:06;1.70;;;1.20;;
39768;SDS011;38939;47.824;14.642;2022-07-12T04:22:08;3.63;;;1.35;;
39768;SDS011;38939;47.824;14.642;2022-07-12T04:23:10;2.92;;;1.70;;
39768;SDS011;38939;47.824;14.642;2022-07-12T04:24:12;4.25;;;1.67;;
39768;SDS011;38939;47.824;14.642;2022-07-12T04:25:14;5.60;;;1.50;;
39768;SDS011;38939;47.824;14.642;2022-07-12T04:26:16;2.20;;;1.30;;
39768;SDS011;38939;47.824;14.642;2022-07-12T04:27:18;2.38;;;1.52;;
39768;SDS011;38939;47.824;14.642;2022-07-12T04:28:21;3.08;;;1.70;;
39768;SDS011;38939;47.824;14.642;2022-07-12T04:30:25;2.80;;;1.77;;
39768;SDS011;38939;47.824;14.642;2022-07-12T04:31:30;2.30;;;1.50;;
39768;SDS011;38939;47.824;14.642;2022-07-12T04:32:32;5.43;;;1.95;;
39768;SDS011;38939;47.824;14.642;2022-07-12T04:33:34;4.97;;;1.58;;
39768;SDS011;38939;47.824;14.642;2022-07-12T04:35:38;3.15;;;1.70;;
39768;SDS011;38939;47.824;14.642;2022-07-12T04:36:40;6.65;;;1.30;;
39768;SDS011;38939;47.824;14.642;2022-07-12T04:37:43;3.97;;;1.55;;
39768;SDS011;38939;47.824;14.642;2022-07-12T04:38:44;1.98;;;1.23;;
39768;SDS011;38939;47.824;14.642;2022-07-12T04:39:47;2.85;;;1.60;;
39768;SDS011;38939;47.824;14.642;2022-07-12T04:40:49;2.80;;;1.48;;
39768;SDS011;38939;47.824;14.642;2022-07-12T04:41:51;3.75;;;1.45;;
39768;SDS011;38939;47.824;14.642;2022-07-12T04:42:53;2.83;;;1.30;;
39768;SDS011;38939;47.824;14.642;2022-07-12T04:43:55;3.00;;;1.20;;
39768;SDS011;38939;47.824;14.642;2022-07-12T04:44:57;2.30;;;1.42;;
39768;SDS011;38939;47.824;14.642;2022-07-12T04:46:09;3.05;;;1.63;;
39768;SDS011;38939;47.824;14.642;2022-07-12T04:47:11;1.95;;;1.20;;
39768;SDS011;38939;47.824;14.642;2022-07-12T04:48:14;5.72;;;1.38;;
39768;SDS011;38939;47.824;14.642;2022-07-12T04:49:16;2.75;;;1.63;;
39768;SDS011;38939;47.824;14.642;2022-07-12T04:50:18;2.75;;;1.65;;
39768;SDS011;38939;47.824;14.642;2022-07-12T04:51:21;4.97;;;1.60;;
39768;SDS011;38939;47.824;14.642;2022-07-12T04:52:23;4.53;;;1.88;;
39768;SDS011;38939;47.824;14.642;2022-07-12T04:53:26;2.10;;;1.48;;
39768;SDS011;38939;47.824;14.642;2022-07-12T04:54:28;5.45;;;1.80;;
39768;SDS011;38939;47.824;14.642;2022-07-12T04:55:30;2.97;;;1.70;;
39768;SDS011;38939;47.824;14.642;2022-07-12T04:56:32;3.10;;;1.70;;
39768;SDS011;38939;47.824;14.642;2022-07-12T04:57:34;3.65;;;1.52;;
39768;SDS011;38939;47.824;14.642;2022-07-12T04:59:38;2.58;;;1.42;;
39768;SDS011;38939;47.824;14.642;2022-07-12T05:00:40;4.30;;;1.70;;
39768;SDS011;38939;47.824;14.642;2022-07-12T05:01:42;7.50;;;1.42;;
39768;SDS011;38939;47.824;14.642;2022-07-12T05:02:47;3.00;;;1.58;;
39768;SDS011;38939;47.824;14.642;2022-07-12T05:03:50;2.97;;;1.60;;
39768;SDS011;38939;47.824;14.642;2022-07-12T05:04:52;2.25;;;1.42;;
39768;SDS011;38939;47.824;14.642;2022-07-12T05:05:54;4.70;;;1.60;;
39768;SDS011;38939;47.824;14.642;2022-07-12T05:06:56;4.97;;;1.40;;
39768;SDS011;38939;47.824;14.642;2022-07-12T05:07:58;5.60;;;1.90;;
39768;SDS011;38939;47.824;14.642;2022-07-12T05:09:01;5.93;;;2.13;;
39768;SDS011;38939;47.824;14.642;2022-07-12T05:10:03;4.40;;;1.70;;
39768;SDS011;38939;47.824;14.642;2022-07-12T05:11:06;3.58;;;1.98;;
39768;SDS011;38939;47.824;14.642;2022-07-12T05:12:08;4.40;;;1.92;;
39768;SDS011;38939;47.824;14.642;2022-07-12T05:13:10;4.60;;;2.00;;
39768;SDS011;38939;47.824;14.642;2022-07-12T05:14:12;3.20;;;1.70;;
39768;SDS011;38939;47.824;14.642;2022-07-12T05:15:14;2.63;;;1.50;;
39768;SDS011;38939;47.824;14.642;2022-07-12T05:16:16;2.70;;;1.75;;
39768;SDS011;38939;47.824;14.642;2022-07-12T05:18:20;7.38;;;1.58;;
39768;SDS011;38939;47.824;14.642;2022-07-12T05:19:22;1.98;;;1.50;;
39768;SDS011;38939;47.824;14.642;2022-07-12T05:20:25;3.05;;;1.90;;
39768;SDS011;38939;47.824;14.642;2022-07-12T05:21:27;2.35;;;1.83;;
39768;SDS011;38939;47.824;14.642;2022-07-12T05:22:30;6.43;;;2.03;;
39768;SDS011;38939;47.824;14.642;2022-07-12T05:23:32;4.85;;;1.85;;
39768;SDS011;38939;47.824;14.642;2022-07-12T05:24:34;6.05;;;1.88;;
39768;SDS011;38939;47.824;14.642;2022-07-12T05:25:36;4.28;;;1.83;;
39768;SDS011;38939;47.824;14.642;2022-07-12T05:26:38;5.28;;;2.20;;
39768;SDS011;38939;47.824;14.642;2022-07-12T05:27:41;4.88;;;1.90;;
39768;SDS011;38939;47.824;14.642;2022-07-12T05:28:43;5.93;;;1.85;;
39768;SDS011;38939;47.824;14.642;2022-07-12T05:29:45;1.77;;;1.65;;
39768;SDS011;38939;47.824;14.642;2022-07-12T05:30:47;3.95;;;1.90;;
39768;SDS011;38939;47.824;14.642;2022-07-12T05:31:49;3.38;;;1.80;;
39768;SDS011;38939;47.824;14.642;2022-07-12T05:32:52;2.55;;;1.73;;
39768;SDS011;38939;47.824;14.642;2022-07-12T05:33:54;6.50;;;1.90;;
39768;SDS011;38939;47.824;14.642;2022-07-12T05:34:57;2.30;;;1.65;;
39768;SDS011;38939;47.824;14.642;2022-07-12T05:35:59;2.42;;;1.60;;
39768;SDS011;38939;47.824;14.642;2022-07-12T05:37:02;4.63;;;1.80;;
39768;SDS011;38939;47.824;14.642;2022-07-12T05:38:05;1.70;;;1.50;;
39768;SDS011;38939;47.824;14.642;2022-07-12T05:39:07;6.80;;;1.33;;
39768;SDS011;38939;47.824;14.642;2022-07-12T05:40:09;8.02;;;1.92;;
39768;SDS011;38939;47.824;14.642;2022-07-12T05:41:11;5.03;;;1.85;;
39768;SDS011;38939;47.824;14.642;2022-07-12T05:42:14;3.03;;;1.95;;
39768;SDS011;38939;47.824;14.642;2022-07-12T05:43:16;4.20;;;1.77;;
39768;SDS011;38939;47.824;14.642;2022-07-12T05:44:18;3.58;;;1.70;;
39768;SDS011;38939;47.824;14.642;2022-07-12T05:45:20;5.80;;;1.80;;
39768;SDS011;38939;47.824;14.642;2022-07-12T05:46:24;1.92;;;1.73;;
39768;SDS011;38939;47.824;14.642;2022-07-12T05:47:26;2.70;;;1.58;;
39768;SDS011;38939;47.824;14.642;2022-07-12T05:48:36;2.40;;;1.40;;
39768;SDS011;38939;47.824;14.642;2022-07-12T05:49:39;5.03;;;1.67;;
39768;SDS011;38939;47.824;14.642;2022-07-12T05:50:41;3.75;;;1.70;;
39768;SDS011;38939;47.824;14.642;2022-07-12T05:51:43;3.53;;;1.77;;
39768;SDS011;38939;47.824;14.642;2022-07-12T05:53:04;3.72;;;2.20;;
39768;SDS011;38939;47.824;14.642;2022-07-12T05:54:24;4.65;;;2.55;;
39768;SDS011;38939;47.824;14.642;2022-07-12T05:55:26;3.95;;;2.28;;
39768;SDS011;38939;47.824;14.642;2022-07-12T05:56:28;4.07;;;2.10;;
39768;SDS011;38939;47.824;14.642;2022-07-12T05:57:30;2.80;;;1.80;;
39768;SDS011;38939;47.824;14.642;2022-07-12T05:58:32;5.00;;;2.35;;
39768;SDS011;38939;47.824;14.642;2022-07-12T05:59:41;2.90;;;2.20;;
39768;SDS011;38939;47.824;14.642;2022-07-12T06:00:43;3.80;;;2.28;;
39768;SDS011;38939;47.824;14.642;2022-07-12T06:01:46;3.25;;;2.13;;
39768;SDS011;38939;47.824;14.642;2022-07-12T06:02:47;5.32;;;2.33;;
39768;SDS011;38939;47.824;14.642;2022-07-12T06:03:50;3.63;;;2.00;;
39768;SDS011;38939;47.824;14.642;2022-07-12T06:04:52;2.10;;;1.83;;
39768;SDS011;38939;47.824;14.642;2022-07-12T06:05:54;4.25;;;2.28;;
39768;SDS011;38939;47.824;14.642;2022-07-12T06:06:57;5.35;;;2.10;;
39768;SDS011;38939;47.824;14.642;2022-07-12T06:07:59;7.20;;;2.33;;
39768;SDS011;38939;47.824;14.642;2022-07-12T06:09:02;3.33;;;1.80;;
39768;SDS011;38939;47.824;14.642;2022-07-12T06:10:04;2.85;;;1.70;;
39768;SDS011;38939;47.824;14.642;2022-07-12T06:11:07;2.63;;;2.17;;
39768;SDS011;38939;47.824;14.642;2022-07-12T06:12:09;2.60;;;2.10;;
39768;SDS011;38939;47.824;14.642;2022-07-12T06:13:11;3.22;;;1.83;;
39768;SDS011;38939;47.824;14.642;2022-07-12T06:14:13;4.00;;;2.00;;
39768;SDS011;38939;47.824;14.642;2022-07-12T06:15:16;4.20;;;2.13;;
39768;SDS011;38939;47.824;14.642;2022-07-12T06:16:18;4.88;;;2.22;;
39768;SDS011;38939;47.824;14.642;2022-07-12T06:17:20;10.32;;;2.85;;
39768;SDS011;38939;47.824;14.642;2022-07-12T06:18:23;4.78;;;2.08;;
39768;SDS011;38939;47.824;14.642;2022-07-12T06:19:26;2.70;;;2.20;;
39768;SDS011;38939;47.824;14.642;2022-07-12T06:21:30;3.20;;;2.03;;
39768;SDS011;38939;47.824;14.642;2022-07-12T06:22:32;4.22;;;2.08;;
39768;SDS011;38939;47.824;14.642;2022-07-12T06:23:34;2.28;;;1.65;;
39768;SDS011;38939;47.824;14.642;2022-07-12T06:24:37;27.15;;;17.92;;
39768;SDS011;38939;47.824;14.642;2022-07-12T06:25:39;34.08;;;22.55;;
39768;SDS011;38939;47.824;14.642;2022-07-12T06:26:44;22.27;;;16.08;;
39768;SDS011;38939;47.824;14.642;2022-07-12T06:27:46;8.85;;;5.28;;
39768;SDS011;38939;47.824;14.642;2022-07-12T06:28:50;6.55;;;4.88;;
39768;SDS011;38939;47.824;14.642;2022-07-12T06:29:51;7.53;;;4.93;;
39768;SDS011;38939;47.824;14.642;2022-07-12T06:30:54;6.28;;;5.22;;
39768;SDS011;38939;47.824;14.642;2022-07-12T06:31:56;5.72;;;3.78;;
39768;SDS011;38939;47.824;14.642;2022-07-12T06:32:58;4.05;;;3.47;;
39768;SDS011;38939;47.824;14.642;2022-07-12T06:34:00;4.95;;;3.30;;
39768;SDS011;38939;47.824;14.642;2022-07-12T06:35:02;4.47;;;2.72;;